createdAt,value
2018-04-22T00:00:06.219Z,101096.98
2018-04-22T00:02:34.644Z,101094.34
2018-04-22T00:05:03.019Z,101093.88
2018-04-22T00:07:31.419Z,101099.12
2018-04-22T00:09:59.816Z,101086.45
2018-04-22T00:12:28.990Z,101090.78
2018-04-22T00:14:57.376Z,101088.13
2018-04-22T00:17:25.761Z,101082.02
2018-04-22T00:19:54.154Z,101090.28
2018-04-22T00:22:22.590Z,101082.36
2018-04-22T00:24:51.063Z,101075.38
2018-04-22T00:27:19.468Z,101075.91
2018-04-22T00:29:47.866Z,101071.54
2018-04-22T00:32:16.273Z,101064.95
2018-04-22T00:34:44.728Z,101067.56
2018-04-22T00:37:13.125Z,101060.97
2018-04-22T00:39:41.538Z,101053.56
2018-04-22T00:42:10.700Z,101053.09
2018-04-22T00:44:39.854Z,101057.41
2018-04-22T00:47:08.247Z,101051.30
2018-04-22T00:49:36.629Z,101049.13
2018-04-22T00:52:05.019Z,101047.81
2018-04-22T00:54:33.405Z,101041.67
2018-04-22T00:57:01.820Z,101042.54
2018-04-22T00:59:30.206Z,101036.44
2018-04-22T01:01:58.597Z,101029.05
2018-04-22T01:04:26.996Z,101028.63
2018-04-22T01:06:55.402Z,101031.64
2018-04-22T01:09:23.812Z,101028.57
2018-04-22T01:11:52.194Z,101029.00
2018-04-22T01:14:20.607Z,101020.25
2018-04-22T01:16:49.015Z,101025.02
2018-04-22T01:19:17.435Z,101020.20
2018-04-22T01:21:45.821Z,101019.80
2018-04-22T01:24:14.205Z,101017.16
2018-04-22T01:26:42.697Z,101006.67
2018-04-22T01:29:11.082Z,101005.36
2018-04-22T01:31:39.472Z,100994.92
2018-04-22T01:34:07.884Z,101002.29
2018-04-22T01:36:36.273Z,101000.55
2018-04-22T01:39:04.678Z,100997.95
2018-04-22T01:41:33.837Z,100997.05
2018-04-22T01:44:02.234Z,100998.35
2018-04-22T01:46:30.645Z,100991.80
2018-04-22T01:48:59.814Z,100993.10
2018-04-22T01:51:28.259Z,100992.62
2018-04-22T01:53:56.661Z,100995.23
2018-04-22T01:56:25.046Z,100990.44
2018-04-22T01:58:53.449Z,100991.34
2018-04-22T02:01:21.878Z,100980.84
2018-04-22T02:03:51.057Z,100983.48
2018-04-22T02:06:19.486Z,100975.17
2018-04-22T02:08:47.912Z,100976.03
2018-04-22T02:11:16.452Z,100979.11
2018-04-22T02:13:44.864Z,100970.82
2018-04-22T02:16:13.262Z,100970.82
2018-04-22T02:18:41.652Z,100968.19
2018-04-22T02:21:10.037Z,100968.16
2018-04-22T02:23:38.491Z,100972.08
2018-04-22T02:26:06.905Z,100970.33
2018-04-22T02:28:35.347Z,100960.73
2018-04-22T02:31:03.742Z,100964.69
2018-04-22T02:33:32.128Z,100961.20
2018-04-22T02:36:00.688Z,100952.48
2018-04-22T02:38:29.143Z,100945.95
2018-04-22T02:40:58.323Z,100945.09
2018-04-22T02:43:26.706Z,100944.66
2018-04-22T02:45:55.118Z,100940.70
2018-04-22T02:48:24.279Z,100944.19
2018-04-22T02:50:52.680Z,100938.53
2018-04-22T02:53:21.091Z,100937.20
2018-04-22T02:55:49.501Z,100935.44
2018-04-22T02:58:18.018Z,100937.62
2018-04-22T03:00:46.471Z,100935.47
2018-04-22T03:03:14.865Z,100934.14
2018-04-22T03:05:44.203Z,100932.84
2018-04-22T03:08:12.602Z,100935.81
2018-04-22T03:10:41.787Z,100937.16
2018-04-22T03:13:10.174Z,100924.98
2018-04-22T03:15:38.568Z,100926.28
2018-04-22T03:18:07.734Z,100927.12
2018-04-22T03:20:36.134Z,100923.15
2018-04-22T03:23:04.565Z,100921.84
2018-04-22T03:25:32.960Z,100918.37
2018-04-22T03:28:01.387Z,100910.52
2018-04-22T03:30:29.849Z,100910.08
2018-04-22T03:32:58.237Z,100910.55
2018-04-22T03:35:26.650Z,100906.66
2018-04-22T03:37:55.801Z,100896.66
2018-04-22T03:40:24.215Z,100896.26
2018-04-22T03:42:52.602Z,100888.52
2018-04-22T03:45:20.991Z,100885.10
2018-04-22T03:47:49.386Z,100879.97
2018-04-22T03:50:18.595Z,100880.55
2018-04-22T03:52:47.778Z,100877.98
2018-04-22T03:55:16.175Z,100869.70
2018-04-22T03:57:44.794Z,100865.34
2018-04-22T04:00:13.209Z,100860.55
2018-04-22T04:02:41.613Z,100863.17
2018-04-22T04:05:10.022Z,100857.92
2018-04-22T04:07:39.176Z,100862.30
2018-04-22T04:10:07.561Z,100866.63
2018-04-22T04:12:35.954Z,100859.69
2018-04-22T04:15:04.369Z,100856.29
2018-04-22T04:17:33.519Z,100857.62
2018-04-22T04:20:19.522Z,100858.05
2018-04-22T04:22:47.894Z,100848.53
2018-04-22T04:25:45.558Z,100848.55
2018-04-22T04:28:13.968Z,100850.70
2018-04-22T04:30:43.163Z,100845.91
2018-04-22T04:33:12.413Z,100842.88
2018-04-22T04:35:40.795Z,100852.01
2018-04-22T04:38:09.268Z,100841.59
2018-04-22T04:40:37.670Z,100843.31
2018-04-22T04:43:06.046Z,100842.45
2018-04-22T04:45:34.525Z,100839.37
2018-04-22T04:48:02.999Z,100838.06
2018-04-22T04:50:31.389Z,100839.38
2018-04-22T04:52:59.767Z,100836.34
2018-04-22T04:55:28.207Z,100841.10
2018-04-22T04:57:56.587Z,100839.38
2018-04-22T05:00:24.996Z,100838.45
2018-04-22T05:02:54.226Z,100842.80
2018-04-22T05:05:22.750Z,100848.03
2018-04-22T05:07:51.133Z,100846.66
2018-04-22T05:10:19.518Z,100846.27
2018-04-22T05:12:47.910Z,100844.91
2018-04-22T05:15:16.373Z,100849.27
2018-04-22T05:17:44.774Z,100846.17
2018-04-22T05:20:13.176Z,100834.38
2018-04-22T05:22:41.561Z,100838.28
2018-04-22T05:25:10.741Z,100839.95
2018-04-22T05:27:39.147Z,100832.09
2018-04-22T05:30:08.306Z,100835.54
2018-04-22T05:32:37.459Z,100823.66
2018-04-22T05:35:06.668Z,100820.52
2018-04-22T05:37:35.067Z,100825.20
2018-04-22T05:40:03.480Z,100831.20
2018-04-22T05:42:31.902Z,100825.03
2018-04-22T05:45:01.059Z,100825.94
2018-04-22T05:47:29.452Z,100827.55
2018-04-22T05:49:57.837Z,100827.41
2018-04-22T05:52:26.246Z,100819.00
2018-04-22T05:54:54.661Z,100824.97
2018-04-22T05:57:23.830Z,100824.97
2018-04-22T05:59:52.326Z,100824.88
2018-04-22T06:02:21.513Z,100822.60
2018-04-22T06:04:49.901Z,100817.09
2018-04-22T06:07:18.317Z,100823.16
2018-04-22T06:09:46.697Z,100821.98
2018-04-22T06:12:15.139Z,100818.65
2018-04-22T06:14:43.527Z,100807.38
2018-04-22T06:17:11.957Z,100803.11
2018-04-22T06:19:40.346Z,100796.72
2018-04-22T06:22:08.757Z,100801.41
2018-04-22T06:24:37.169Z,100802.41
2018-04-22T06:27:05.584Z,100796.94
2018-04-22T06:29:34.043Z,100797.66
2018-04-22T06:32:03.208Z,100797.41
2018-04-22T06:34:31.629Z,100795.13
2018-04-22T06:37:00.814Z,100787.33
2018-04-22T06:39:29.208Z,100785.33
2018-04-22T06:41:57.595Z,100773.39
2018-04-22T06:44:25.979Z,100770.67
2018-04-22T06:46:54.482Z,100774.25
2018-04-22T06:49:23.657Z,100769.62
2018-04-22T06:51:52.140Z,100772.73
2018-04-22T06:54:20.551Z,100769.95
2018-04-22T06:56:49.713Z,100773.42
2018-04-22T06:59:18.119Z,100777.45
2018-04-22T07:01:46.547Z,100783.23
2018-04-22T07:04:14.945Z,100786.52
2018-04-22T07:06:43.334Z,100787.88
2018-04-22T07:09:11.737Z,100786.56
2018-04-22T07:11:40.228Z,100782.55
2018-04-22T07:14:08.651Z,100783.47
2018-04-22T07:16:37.448Z,100784.52
2018-04-22T07:19:05.943Z,100780.51
2018-04-22T07:21:34.339Z,100782.69
2018-04-22T07:24:02.867Z,100779.00
2018-04-22T07:26:31.274Z,100767.02
2018-04-22T07:29:00.440Z,100771.23
2018-04-22T07:31:28.884Z,100773.81
2018-04-22T07:33:57.295Z,100772.70
2018-04-22T07:36:25.741Z,100777.48
2018-04-22T07:38:54.154Z,100775.98
2018-04-22T07:41:22.576Z,100773.38
2018-04-22T07:43:51.863Z,100774.86
2018-04-22T07:46:21.351Z,100771.14
2018-04-22T07:48:49.812Z,100771.67
2018-04-22T07:51:19.228Z,100768.14
2018-04-22T07:53:47.687Z,100766.05
2018-04-22T07:56:17.069Z,100771.51
2018-04-22T07:58:46.278Z,100775.67
2018-04-22T08:01:15.477Z,100778.98
2018-04-22T08:03:43.869Z,100776.44
2018-04-22T08:06:13.046Z,100781.32
2018-04-22T08:08:41.457Z,100772.15
2018-04-22T08:11:10.683Z,100771.71
2018-04-22T08:13:39.504Z,100765.34
2018-04-22T08:16:07.942Z,100766.44
2018-04-22T08:18:37.180Z,100766.13
2018-04-22T08:21:05.606Z,100756.97
2018-04-22T08:23:34.013Z,100763.36
2018-04-22T08:26:03.195Z,100753.86
2018-04-22T08:28:32.399Z,100754.56
2018-04-22T08:31:00.785Z,100754.88
2018-04-22T08:33:29.958Z,100757.13
2018-04-22T08:35:58.346Z,100749.86
2018-04-22T08:38:26.762Z,100747.33
2018-04-22T08:40:56.341Z,100741.66
2018-04-22T08:43:24.740Z,100744.16
2018-04-22T08:45:53.945Z,100739.27
2018-04-22T08:48:22.367Z,100747.08
2018-04-22T08:50:50.771Z,100748.26
2018-04-22T08:53:19.193Z,100747.20
2018-04-22T08:55:48.373Z,100744.11
2018-04-22T08:58:16.802Z,100746.48
2018-04-22T09:00:45.209Z,100741.91
2018-04-22T09:03:13.628Z,100741.47
2018-04-22T09:05:42.077Z,100737.20
2018-04-22T09:08:10.581Z,100741.29
2018-04-22T09:10:39.012Z,100737.55
2018-04-22T09:13:08.508Z,100734.36
2018-04-22T09:15:37.690Z,100730.59
2018-04-22T09:18:06.193Z,100729.95
2018-04-22T09:20:34.594Z,100729.41
2018-04-22T09:23:03.746Z,100736.52
2018-04-22T09:25:32.163Z,100732.88
2018-04-22T09:28:00.698Z,100731.09
2018-04-22T09:30:30.006Z,100728.48
2018-04-22T09:32:58.432Z,100731.48
2018-04-22T09:35:26.840Z,100736.84
2018-04-22T09:37:56.035Z,100730.51
2018-04-22T09:40:25.249Z,100725.09
2018-04-22T09:42:54.450Z,100728.28
2018-04-22T09:45:22.973Z,100722.34
2018-04-22T09:47:52.385Z,100715.31
2018-04-22T09:50:20.863Z,100719.17
2018-04-22T09:52:49.306Z,100710.37
2018-04-22T09:55:18.552Z,100713.72
2018-04-22T09:57:47.061Z,100700.55
2018-04-22T10:00:20.951Z,100694.20
2018-04-22T10:02:49.407Z,100694.45
2018-04-22T10:05:22.763Z,100693.64
2018-04-22T10:07:51.182Z,100689.05
2018-04-22T10:10:19.577Z,100689.98
2018-04-22T10:12:47.973Z,100685.13
2018-04-22T10:15:16.409Z,100682.97
2018-04-22T10:17:45.591Z,100670.47
2018-04-22T10:20:14.933Z,100674.80
2018-04-22T10:22:44.154Z,100672.05
2018-04-22T10:25:12.652Z,100654.71
2018-04-22T10:27:41.046Z,100661.77
2018-04-22T10:30:09.469Z,100653.87
2018-04-22T10:32:37.901Z,100656.75
2018-04-22T10:35:06.355Z,100649.59
2018-04-22T10:37:35.510Z,100645.27
2018-04-22T10:40:05.002Z,100639.17
2018-04-22T10:42:33.447Z,100634.33
2018-04-22T10:45:02.621Z,100620.13
2018-04-22T10:47:31.058Z,100624.64
2018-04-22T10:49:59.454Z,100622.32
2018-04-22T10:52:28.748Z,100619.23
2018-04-22T10:54:59.108Z,100618.52
2018-04-22T10:57:27.606Z,100615.72
2018-04-22T10:59:56.053Z,100609.58
2018-04-22T11:02:24.517Z,100603.59
2018-04-22T11:04:52.906Z,100598.32
2018-04-22T11:07:21.339Z,100599.51
2018-04-22T11:09:49.734Z,100599.56
2018-04-22T11:12:18.428Z,100594.86
2018-04-22T11:14:47.695Z,100595.63
2018-04-22T11:17:16.095Z,100586.10
2018-04-22T11:19:44.551Z,100586.63
2018-04-22T11:22:12.955Z,100581.91
2018-04-22T11:24:42.239Z,100577.38
2018-04-22T11:27:11.019Z,100572.81
2018-04-22T11:29:39.503Z,100557.30
2018-04-22T11:32:09.619Z,100555.09
2018-04-22T11:34:38.102Z,100553.90
2018-04-22T11:37:06.814Z,100556.55
2018-04-22T11:39:35.218Z,100542.05
2018-04-22T11:42:03.636Z,100540.25
2018-04-22T11:44:32.152Z,100543.17
2018-04-22T11:47:00.550Z,100537.69
2018-04-22T11:49:28.931Z,100535.02
2018-04-22T11:51:57.368Z,100536.57
2018-04-22T11:54:26.671Z,100531.34
2018-04-22T11:56:55.877Z,100535.97
2018-04-22T11:59:24.307Z,100528.06
2018-04-22T12:01:52.725Z,100521.38
2018-04-22T12:04:21.208Z,100507.33
2018-04-22T12:06:49.638Z,100500.06
2018-04-22T12:09:18.860Z,100500.98
2018-04-22T12:11:47.265Z,100504.47
2018-04-22T12:14:15.661Z,100487.03
2018-04-22T12:16:44.058Z,100485.41
2018-04-22T12:19:12.456Z,100474.37
2018-04-22T12:21:41.625Z,100471.23
2018-04-22T12:24:10.042Z,100467.96
2018-04-22T12:26:38.481Z,100463.72
2018-04-22T12:29:06.899Z,100458.91
2018-04-22T12:31:37.609Z,100441.87
2018-04-22T12:34:06.069Z,100433.13
2018-04-22T12:36:34.534Z,100437.94
2018-04-22T12:39:02.909Z,100445.23
2018-04-22T12:41:37.823Z,100427.61
2018-04-22T12:44:10.699Z,100421.75
2018-04-22T12:46:39.123Z,100431.14
2018-04-22T12:49:07.521Z,100433.65
2018-04-22T12:51:35.914Z,100437.09
2018-04-22T12:54:04.308Z,100426.03
2018-04-22T12:56:32.711Z,100416.30
2018-04-22T12:59:01.175Z,100395.68
2018-04-22T13:01:29.562Z,100383.70
2018-04-22T13:03:57.979Z,100412.98
2018-04-22T13:06:27.140Z,100469.39
2018-04-22T13:08:55.528Z,100555.71
2018-04-22T13:11:23.979Z,100584.22
2018-04-22T13:13:52.387Z,100569.35
2018-04-22T13:16:20.848Z,100595.78
2018-04-22T13:18:49.239Z,100642.90
2018-04-22T13:21:18.222Z,100677.32
2018-04-22T13:23:46.621Z,100642.91
2018-04-22T13:26:15.027Z,100591.49
2018-04-22T13:28:43.426Z,100556.96
2018-04-22T13:31:11.846Z,100555.14
2018-04-22T13:33:41.013Z,100544.08
2018-04-22T13:36:09.398Z,100548.45
2018-04-22T13:38:37.919Z,100560.06
2018-04-22T13:41:06.327Z,100549.23
2018-04-22T13:43:34.762Z,100513.68
2018-04-22T13:46:03.188Z,100494.27
2018-04-22T13:48:31.579Z,100472.89
2018-04-22T13:50:59.981Z,100465.34
2018-04-22T13:53:30.085Z,100451.58
2018-04-22T13:55:58.515Z,100437.20
2018-04-22T13:58:27.023Z,100426.87
2018-04-22T14:00:56.182Z,100432.52
2018-04-22T14:03:24.651Z,100433.77
2018-04-22T14:05:53.040Z,100439.72
2018-04-22T14:08:21.491Z,100442.05
2018-04-22T14:10:50.657Z,100445.16
2018-04-22T14:13:19.031Z,100449.25
2018-04-22T14:15:47.462Z,100463.55
2018-04-22T14:18:15.881Z,100456.12
2018-04-22T14:20:44.262Z,100448.87
2018-04-22T14:23:12.667Z,100449.70
2018-04-22T14:25:41.084Z,100435.48
2018-04-22T14:28:09.497Z,100417.89
2018-04-22T14:30:37.901Z,100408.05
2018-04-22T14:33:06.322Z,100406.52
2018-04-22T14:35:35.493Z,100416.13
2018-04-22T14:38:03.944Z,100416.89
2018-04-22T14:40:32.275Z,100408.80
2018-04-22T14:43:00.701Z,100426.95
2018-04-22T14:45:46.908Z,100456.67
2018-04-22T14:48:15.311Z,100407.36
2018-04-22T14:50:43.798Z,100403.87
2018-04-22T14:53:12.142Z,100407.95
2018-04-22T14:55:40.656Z,100408.56
2018-04-22T14:58:09.065Z,100398.73
2018-04-22T15:00:37.473Z,100391.33
2018-04-22T15:03:06.629Z,100390.94
2018-04-22T15:05:35.035Z,100400.37
2018-04-22T15:08:03.425Z,100400.69
2018-04-22T15:10:31.842Z,100394.05
2018-04-22T15:13:00.257Z,100388.74
2018-04-22T15:15:28.667Z,100383.25
2018-04-22T15:17:57.100Z,100384.90
2018-04-22T15:20:25.583Z,100380.88
2018-04-22T15:22:54.071Z,100383.50
2018-04-22T15:25:22.459Z,100407.34
2018-04-22T15:27:50.851Z,100425.08
2018-04-22T15:30:19.271Z,100434.53
2018-04-22T15:32:47.685Z,100436.27
2018-04-22T15:35:16.874Z,100402.98
2018-04-22T15:37:45.354Z,100379.42
2018-04-22T15:40:13.752Z,100399.31
2018-04-22T15:42:42.937Z,100404.62
2018-04-22T15:45:11.356Z,100373.59
2018-04-22T15:47:39.877Z,100372.18
2018-04-22T15:50:08.330Z,100367.89
2018-04-22T15:52:36.810Z,100371.75
2018-04-22T15:55:05.209Z,100372.77
2018-04-22T15:57:33.611Z,100398.15
2018-04-22T16:00:02.859Z,100408.61
2018-04-22T16:02:32.059Z,100415.94
2018-04-22T16:05:00.461Z,100378.22
2018-04-22T16:07:28.893Z,100392.53
2018-04-22T16:09:57.305Z,100400.81
2018-04-22T16:12:25.713Z,100435.94
2018-04-22T16:14:54.116Z,100446.59
2018-04-22T16:17:22.575Z,100440.95
2018-04-22T16:19:51.766Z,100427.34
2018-04-22T16:22:20.938Z,100404.41
2018-04-22T16:24:49.394Z,100394.91
2018-04-22T16:27:17.764Z,100393.64
2018-04-22T16:29:46.200Z,100401.34
2018-04-22T16:32:14.606Z,100390.88
2018-04-22T16:34:43.843Z,100381.38
2018-04-22T16:37:12.270Z,100358.44
2018-04-22T16:39:40.728Z,100357.71
2018-04-22T16:42:09.118Z,100360.25
2018-04-22T16:44:37.559Z,100363.98
2018-04-22T16:47:06.726Z,100360.59
2018-04-22T16:49:35.137Z,100360.20
2018-04-22T16:52:04.371Z,100367.42
2018-04-22T16:54:32.766Z,100366.03
2018-04-22T16:57:01.196Z,100374.88
2018-04-22T16:59:30.389Z,100381.25
2018-04-22T17:01:59.573Z,100380.25
2018-04-22T17:04:27.980Z,100386.49
2018-04-22T17:06:57.163Z,100389.67
2018-04-22T17:09:25.580Z,100382.40
2018-04-22T17:11:54.814Z,100395.86
2018-04-22T17:14:23.226Z,100397.03
2018-04-22T17:16:51.622Z,100391.53
2018-04-22T17:19:20.058Z,100398.22
2018-04-22T17:21:48.472Z,100400.25
2018-04-22T17:24:17.654Z,100397.28
2018-04-22T17:26:46.063Z,100401.97
2018-04-22T17:29:14.489Z,100401.86
2018-04-22T17:31:42.901Z,100403.09
2018-04-22T17:34:11.288Z,100411.46
2018-04-22T17:36:39.682Z,100411.52
2018-04-22T17:39:08.134Z,100414.33
2018-04-22T17:41:36.550Z,100415.88
2018-04-22T17:44:04.969Z,100419.78
2018-04-22T17:46:33.466Z,100425.59
2018-04-22T17:49:02.630Z,100420.00
2018-04-22T17:51:31.018Z,100419.85
2018-04-22T17:53:59.429Z,100430.61
2018-04-22T17:56:28.613Z,100436.55
2018-04-22T17:58:57.042Z,100428.72
2018-04-22T18:01:25.483Z,100428.77
2018-04-22T18:03:54.214Z,100437.44
2018-04-22T18:06:22.650Z,100433.87
2018-04-22T18:08:51.046Z,100436.17
2018-04-22T18:11:19.447Z,100435.97
2018-04-22T18:13:48.641Z,100437.48
2018-04-22T18:16:18.077Z,100433.13
2018-04-22T18:18:46.561Z,100435.94
2018-04-22T18:21:14.979Z,100437.77
2018-04-22T18:23:43.397Z,100439.79
2018-04-22T18:26:11.786Z,100437.12
2018-04-22T18:28:41.897Z,100435.97
2018-04-22T18:31:10.306Z,100441.31
2018-04-22T18:33:39.578Z,100445.11
2018-04-22T18:36:08.894Z,100443.64
2018-04-22T18:38:37.332Z,100445.72
2018-04-22T18:41:06.447Z,100451.55
2018-04-22T18:43:34.854Z,100451.56
2018-04-22T18:46:03.255Z,100452.45
2018-04-22T18:48:32.454Z,100462.19
2018-04-22T18:51:01.659Z,100463.74
2018-04-22T18:53:30.074Z,100467.91
2018-04-22T18:55:58.522Z,100473.27
2018-04-22T18:58:27.007Z,100466.00
2018-04-22T19:00:55.426Z,100473.78
2018-04-22T19:03:24.121Z,100476.78
2018-04-22T19:05:52.618Z,100477.64
2018-04-22T19:08:21.108Z,100473.94
2018-04-22T19:10:49.522Z,100474.82
2018-04-22T19:13:17.949Z,100478.20
2018-04-22T19:15:46.372Z,100483.09
2018-04-22T19:18:14.790Z,100489.08
2018-04-22T19:20:43.952Z,100484.86
2018-04-22T19:23:12.347Z,100492.23
2018-04-22T19:25:40.862Z,100494.50
2018-04-22T19:28:10.027Z,100493.56
2018-04-22T19:30:38.553Z,100498.77
2018-04-22T19:33:07.780Z,100501.05
2018-04-22T19:35:36.161Z,100506.41
2018-04-22T19:38:04.594Z,100510.08
2018-04-22T19:40:37.403Z,100510.03
2018-04-22T19:43:06.633Z,100515.34
2018-04-22T19:45:35.135Z,100519.55
2018-04-22T19:48:03.666Z,100529.86
2018-04-22T19:50:33.179Z,100531.36
2018-04-22T19:53:01.659Z,100534.42
2018-04-22T19:55:30.088Z,100541.85
2018-04-22T19:58:00.105Z,100541.91
2018-04-22T20:00:28.638Z,100550.34
2018-04-22T20:02:59.629Z,100551.16
2018-04-22T20:05:28.311Z,100552.45
2018-04-22T20:07:56.736Z,100558.39
2018-04-22T20:10:25.142Z,100554.30
2018-04-22T20:12:53.590Z,100558.88
2018-04-22T20:15:22.023Z,100557.69
2018-04-22T20:17:50.420Z,100555.63
2018-04-22T20:20:20.480Z,100565.80
2018-04-22T20:22:48.950Z,100568.92
2018-04-22T20:25:17.370Z,100571.58
2018-04-22T20:27:48.136Z,100576.43
2018-04-22T20:30:18.768Z,100578.92
2018-04-22T20:32:50.423Z,100570.30
2018-04-22T20:35:25.559Z,100571.83
2018-04-22T20:37:53.975Z,100568.47
2018-04-22T20:40:22.374Z,100578.82
2018-04-22T20:42:50.806Z,100575.69
2018-04-22T20:45:20.336Z,100572.63
2018-04-22T20:47:49.519Z,100574.38
2018-04-22T20:50:17.959Z,100574.77
2018-04-22T20:52:46.406Z,100577.31
2018-04-22T20:55:15.582Z,100574.66
2018-04-22T20:57:44.319Z,100569.31
2018-04-22T21:00:12.752Z,100572.39
2018-04-22T21:02:41.250Z,100577.27
2018-04-22T21:05:09.922Z,100578.57
2018-04-22T21:07:38.321Z,100581.76
2018-04-22T21:10:06.848Z,100580.48
2018-04-22T21:12:35.241Z,100579.73
2018-04-22T21:15:03.673Z,100582.04
2018-04-22T21:17:32.094Z,100581.98
2018-04-22T21:20:00.534Z,100580.47
2018-04-22T21:22:28.950Z,100582.78
2018-04-22T21:24:58.064Z,100585.14
2018-04-22T21:27:26.561Z,100583.98
2018-04-22T21:29:55.006Z,100589.33
2018-04-22T21:32:23.425Z,100588.86
2018-04-22T21:34:51.835Z,100585.99
2018-04-22T21:37:20.244Z,100590.45
2018-04-22T21:39:48.717Z,100596.48
2018-04-22T21:42:17.138Z,100596.69
2018-04-22T21:44:46.335Z,100601.16
2018-04-22T21:47:15.530Z,100604.73
2018-04-22T21:49:43.909Z,100610.03
2018-04-22T21:52:12.318Z,100611.69
2018-04-22T21:54:41.478Z,100608.11
2018-04-22T21:57:09.874Z,100610.19
2018-04-22T21:59:38.298Z,100610.58
2018-04-22T22:02:06.675Z,100610.02
2018-04-22T22:04:35.073Z,100606.95
2018-04-22T22:07:03.551Z,100607.04
2018-04-22T22:09:31.937Z,100606.25
2018-04-22T22:12:00.350Z,100607.61
2018-04-22T22:14:28.769Z,100606.34
2018-04-22T22:16:57.921Z,100602.47
2018-04-22T22:19:26.305Z,100599.04
2018-04-22T22:21:54.738Z,100592.52
2018-04-22T22:24:23.969Z,100596.94
2018-04-22T22:26:52.361Z,100593.91
2018-04-22T22:29:20.799Z,100594.88
2018-04-22T22:31:49.234Z,100596.67
2018-04-22T22:34:17.636Z,100600.69
2018-04-22T22:36:46.366Z,100595.45
2018-04-22T22:39:14.980Z,100601.02
2018-04-22T22:41:43.435Z,100597.97
2018-04-22T22:44:12.636Z,100598.78
2018-04-22T22:46:41.022Z,100600.47
2018-04-22T22:49:10.204Z,100597.30
2018-04-22T22:51:38.660Z,100602.12
2018-04-22T22:54:07.146Z,100592.55
2018-04-22T22:56:35.565Z,100595.21
2018-04-22T22:59:03.974Z,100598.33
2018-04-22T23:01:33.120Z,100605.83
2018-04-22T23:04:01.513Z,100604.98
2018-04-22T23:06:30.650Z,100606.36
2018-04-22T23:08:59.134Z,100602.05
2018-04-22T23:11:28.304Z,100595.06
2018-04-22T23:13:57.535Z,100591.17
2018-04-22T23:16:26.701Z,100591.93
2018-04-22T23:18:55.088Z,100595.78
2018-04-22T23:21:23.529Z,100592.27
2018-04-22T23:23:51.922Z,100590.05
2018-04-22T23:26:20.326Z,100597.48
2018-04-22T23:28:48.717Z,100606.19
2018-04-22T23:31:17.908Z,100612.27
2018-04-22T23:33:46.309Z,100617.41
2018-04-22T23:36:14.686Z,100629.54
2018-04-22T23:38:43.091Z,100632.86
2018-04-22T23:41:11.543Z,100638.28
2018-04-22T23:43:39.957Z,100649.83
2018-04-22T23:46:08.372Z,100661.09
2018-04-22T23:48:37.524Z,100673.44
2018-04-22T23:51:05.931Z,100678.23
2018-04-22T23:53:34.324Z,100703.83
2018-04-22T23:56:03.471Z,100709.78
2018-04-22T23:58:31.853Z,100720.27
